ADDS METAR Data INFO
IDs: Format: Raw Decoded Include TAF

Data at: 1122 UTC 17 Jul 2018

KCNM 171053Z AUTO 00000KT 10SM CLR 21/17 A3010 RMK AO2 SLP134 T02110167
KCNM 170953Z AUTO 00000KT 10SM CLR 21/17 A3011 RMK AO2 SLP136 T02110172
KCNM 170853Z AUTO 00000KT 10SM CLR 22/17 A3011 RMK AO2 SLP136 T02170172 53002
KCNM 170753Z AUTO 14004KT 10SM CLR 23/17 A3010 RMK AO2 SLP134 T02280167
KCNM 170653Z AUTO 12004KT 10SM CLR 24/17 A3010 RMK AO2 SLP133 T02390167 403440189
KCNM 170553Z AUTO 30004KT 10SM CLR 26/16 A3010 RMK AO2 SLP133 T02560156 10339 20256 51017
KCNM 170453Z AUTO 28006KT 10SM CLR 27/16 A3009 RMK AO2 SLP130 T02670156
KCNM 170353Z AUTO 26008KT 10SM CLR 28/15 A3007 RMK AO2 SLP124 T02780150
KCNM 170253Z AUTO 21014KT 10SM CLR 28/15 A3005 RMK AO2 SLP115 T02830150 53013
KCNM 170153Z AUTO 14009KT 10SM CLR 32/13 A3002 RMK AO2 SLP106 T03170133
KCNM 170053Z AUTO 16009KT 10SM CLR 33/13 A3001 RMK AO2 SLP101 T03330128
KCNM 162353Z AUTO 17009G16KT 10SM CLR 34/13 A3001 RMK AO2 SLP101 T03390128 10344 20300 56016
KCNM 162253Z AUTO 16012KT 10SM CLR 34/13 A3001 RMK AO2 SLP103 T03390133
KCNM 162153Z AUTO 13011KT 10SM FEW080 FEW110 33/13 A3003 RMK AO2 SLP109 T03330133
KCNM 162053Z AUTO 10SM CLR 33/14 A3006 RMK AO2 SLP119 T03280144 58021
KCNM 161953Z AUTO 14008KT 10SM CLR 32/15 A3008 RMK AO2 SLP126 T03220150
KCNM 161853Z AUTO 17009KT 10SM CLR 32/17 A3011 RMK AO2 SLP135 T03170167
KCNM 161753Z AUTO 10SM CLR 30/17 A3012 RMK AO2 SLP142 T03000167 10300 20189 58003
KCNM 161653Z AUTO 00000KT 10SM CLR 28/17 A3013 RMK AO2 SLP147 T02830167
KCNM 161553Z AUTO VRB04KT 10SM CLR 27/17 A3013 RMK AO2 SLP147 T02720172
KCNM 161453Z AUTO 00000KT 10SM CLR 26/17 A3013 RMK AO2 SLP149 T02610167 52013
KCNM 161353Z AUTO 24003KT 10SM CLR 22/18 A3012 RMK AO2 SLP149 T02220183
KCNM 161253Z AUTO 00000KT 10SM CLR 19/18 A3010 RMK AO2 SLP145 T01940183
KCNM 161153Z AUTO 16005KT 10SM CLR 19/18 A3009 RMK AO2 SLP142 70012 T01890178 10244 20189 53010
KCNM 161053Z AUTO 22004KT 10SM CLR 19/18 A3008 RMK AO2 SLP133 T01890178
KCNM 160953Z AUTO 14003KT 10SM CLR 21/18 A3006 RMK AO2 SLP121 T02060183
KCNM 160853Z AUTO 08003KT 10SM CLR 21/18 A3006 RMK AO2 SLP118 T02060178 58008
KCNM 160753Z AUTO 00000KT 10SM CLR 22/17 A3008 RMK AO2 SLP123 T02220167
KCNM 160653Z AUTO 21005KT 10SM CLR 24/16 A3008 RMK AO2 SLP124 T02390161 403610222
KCNM 160553Z AUTO 20011KT 10SM CLR 24/17 A3008 RMK AO2 SLP128 60001 T02390167 10250 20222 51024
KCNM 160453Z AUTO 18008KT 10SM CLR 23/18 A3008 RMK AO2 SLP128 T02280178
KCNM 160353Z AUTO 16007KT 10SM CLR 23/18 A3005 RMK AO2 SLP119 T02330178
KCNM 160253Z AUTO 19008KT 10SM CLR 23/17 A3001 RMK AO2 SLP105 60001 T02330172 51001
KCNM 160153Z AUTO 20015KT 10SM CLR 23/18 A3000 RMK AO2 SLP107 T02330178
KCNM 160117Z AUTO 16012KT 10SM CLR 24/18 A3002 RMK AO2 LTG DSNT E-S T02440178
KCNM 160053Z AUTO 15012KT 10SM VCTS FEW100 24/18 A3002 RMK AO2 WSHFT 0021 LTG DSNT E-S RAE44 TSE13 SLP111 P0001 T02440183
KCNM 160041Z AUTO 17013G20KT 10SM VCTS -RA FEW100 24/19 A3002 RMK AO2 WSHFT 0021 LTG DSNT E-S TSE13 P0001 T02390189
KCNM 160019Z AUTO 24011KT 10SM VCTS -RA FEW120 24/19 A3001 RMK AO2 LTG DSNT E-SW TSE13 P0001 T02390189
KCNM 152353Z AUTO 23017KT 6SM TSRA SCT080 BKN110 24/19 A3000 RMK AO2 WSHFT 2311 LTG DSNT E-SW RAB31 TSB2258 SLP108 P0011 60011 T02390189 10361 20239 53001
KCNM 152331Z AUTO 22012KT 10SM -TSRA BKN080 OVC095 28/16 A3002 RMK AO2 WSHFT 2311 LTG DSNT E-SW RAB31 TSB2258 P0000 T02830161